sensor_id;sensor_type;location;lat;lon;timestamp;pressure;altitude;pressure_sealevel;temperature;humidity
82187;BME280;71776;52.042;8.160;2023-08-06T00:00:37;99873.34;;;15.28;85.08
82187;BME280;71776;52.042;8.160;2023-08-06T00:03:04;99866.88;;;15.38;85.22
82187;BME280;71776;52.042;8.160;2023-08-06T00:05:30;99870.84;;;15.25;85.51
82187;BME280;71776;52.042;8.160;2023-08-06T00:07:55;99881.97;;;15.30;85.02
82187;BME280;71776;52.042;8.160;2023-08-06T00:10:21;99870.16;;;15.20;85.94
82187;BME280;71776;52.042;8.160;2023-08-06T00:12:46;99874.38;;;15.24;85.37
82187;BME280;71776;52.042;8.160;2023-08-06T00:15:12;99865.63;;;15.25;85.27
82187;BME280;71776;52.042;8.160;2023-08-06T00:17:38;99847.75;;;15.14;85.42
82187;BME280;71776;52.042;8.160;2023-08-06T00:20:06;99858.59;;;15.27;85.12
82187;BME280;71776;52.042;8.160;2023-08-06T00:22:33;99860.53;;;15.22;85.24
82187;BME280;71776;52.042;8.160;2023-08-06T00:24:59;99847.69;;;15.16;85.13
82187;BME280;71776;52.042;8.160;2023-08-06T00:27:24;99852.81;;;15.19;85.52
82187;BME280;71776;52.042;8.160;2023-08-06T00:29:50;99857.09;;;15.20;85.44
82187;BME280;71776;52.042;8.160;2023-08-06T00:32:15;99851.72;;;15.24;84.51
82187;BME280;71776;52.042;8.160;2023-08-06T00:34:41;99860.88;;;15.13;85.13
82187;BME280;71776;52.042;8.160;2023-08-06T00:37:08;99856.31;;;15.18;85.00
82187;BME280;71776;52.042;8.160;2023-08-06T00:39:33;99854.50;;;15.20;85.49
82187;BME280;71776;52.042;8.160;2023-08-06T00:41:59;99850.31;;;15.16;85.22
82187;BME280;71776;52.042;8.160;2023-08-06T00:44:24;99848.94;;;15.06;85.87
82187;BME280;71776;52.042;8.160;2023-08-06T00:46:50;99853.56;;;14.98;86.23
82187;BME280;71776;52.042;8.160;2023-08-06T00:49:16;99844.53;;;15.08;85.30
82187;BME280;71776;52.042;8.160;2023-08-06T00:51:42;99847.47;;;14.99;85.62
82187;BME280;71776;52.042;8.160;2023-08-06T00:54:09;99845.72;;;14.99;85.66
82187;BME280;71776;52.042;8.160;2023-08-06T00:56:39;99844.84;;;14.99;85.68
82187;BME280;71776;52.042;8.160;2023-08-06T00:59:06;99836.69;;;15.08;85.33
82187;BME280;71776;52.042;8.160;2023-08-06T01:01:31;99842.09;;;15.03;85.48
82187;BME280;71776;52.042;8.160;2023-08-06T01:03:57;99832.38;;;15.07;85.04
82187;BME280;71776;52.042;8.160;2023-08-06T01:06:37;99834.03;;;15.09;84.99
82187;BME280;71776;52.042;8.160;2023-08-06T01:09:15;99832.34;;;15.08;85.17
82187;BME280;71776;52.042;8.160;2023-08-06T01:11:54;99830.09;;;14.98;85.69
82187;BME280;71776;52.042;8.160;2023-08-06T01:14:28;99827.66;;;14.93;85.89
82187;BME280;71776;52.042;8.160;2023-08-06T01:16:54;99824.88;;;14.98;85.45
82187;BME280;71776;52.042;8.160;2023-08-06T01:19:21;99817.22;;;14.93;86.19
82187;BME280;71776;52.042;8.160;2023-08-06T01:21:48;99821.72;;;14.90;85.63
82187;BME280;71776;52.042;8.160;2023-08-06T01:24:13;99820.44;;;15.01;85.31
82187;BME280;71776;52.042;8.160;2023-08-06T01:26:42;99830.84;;;15.01;85.52
82187;BME280;71776;52.042;8.160;2023-08-06T01:29:13;99824.69;;;15.04;85.45
82187;BME280;71776;52.042;8.160;2023-08-06T01:31:42;99822.88;;;15.06;85.21
82187;BME280;71776;52.042;8.160;2023-08-06T01:34:16;99816.00;;;15.03;84.81
82187;BME280;71776;52.042;8.160;2023-08-06T01:36:42;99820.94;;;15.11;84.98
82187;BME280;71776;52.042;8.160;2023-08-06T01:39:10;99818.28;;;15.12;84.67
82187;BME280;71776;52.042;8.160;2023-08-06T01:41:35;99816.47;;;15.14;84.67
82187;BME280;71776;52.042;8.160;2023-08-06T01:44:01;99811.25;;;15.14;85.01
82187;BME280;71776;52.042;8.160;2023-08-06T01:46:26;99809.50;;;15.15;85.32
82187;BME280;71776;52.042;8.160;2023-08-06T01:48:52;99801.84;;;15.10;85.21
82187;BME280;71776;52.042;8.160;2023-08-06T01:51:17;99791.34;;;15.12;85.18
82187;BME280;71776;52.042;8.160;2023-08-06T01:53:43;99798.47;;;15.07;84.88
82187;BME280;71776;52.042;8.160;2023-08-06T01:56:09;99798.47;;;15.07;85.23
82187;BME280;71776;52.042;8.160;2023-08-06T01:58:35;99797.13;;;14.97;85.75
82187;BME280;71776;52.042;8.160;2023-08-06T02:01:01;99797.22;;;14.94;85.71
82187;BME280;71776;52.042;8.160;2023-08-06T02:03:26;99788.75;;;14.87;85.92
82187;BME280;71776;52.042;8.160;2023-08-06T02:05:52;99793.25;;;14.84;85.81
82187;BME280;71776;52.042;8.160;2023-08-06T02:08:17;99785.78;;;14.73;86.32
82187;BME280;71776;52.042;8.160;2023-08-06T02:10:43;99781.09;;;14.59;86.86
82187;BME280;71776;52.042;8.160;2023-08-06T02:13:11;99777.94;;;14.50;87.28
82187;BME280;71776;52.042;8.160;2023-08-06T02:15:42;99774.25;;;14.55;86.92
82187;BME280;71776;52.042;8.160;2023-08-06T02:18:07;99777.19;;;14.46;87.20
82187;BME280;71776;52.042;8.160;2023-08-06T02:20:33;99769.28;;;14.49;86.86
82187;BME280;71776;52.042;8.160;2023-08-06T02:22:58;99771.94;;;14.48;86.83
82187;BME280;71776;52.042;8.160;2023-08-06T02:25:24;99778.59;;;14.56;86.72
82187;BME280;71776;52.042;8.160;2023-08-06T02:27:49;99773.16;;;14.63;86.46
82187;BME280;71776;52.042;8.160;2023-08-06T02:30:16;99776.50;;;14.66;86.31
82187;BME280;71776;52.042;8.160;2023-08-06T02:32:42;99767.59;;;14.72;85.96
82187;BME280;71776;52.042;8.160;2023-08-06T02:35:08;99769.03;;;14.80;85.27
82187;BME280;71776;52.042;8.160;2023-08-06T02:37:34;99768.47;;;14.72;85.88
82187;BME280;71776;52.042;8.160;2023-08-06T02:39:59;99768.63;;;14.68;86.44
82187;BME280;71776;52.042;8.160;2023-08-06T02:42:25;99756.28;;;14.73;86.06
82187;BME280;71776;52.042;8.160;2023-08-06T02:44:50;99755.69;;;14.65;86.41
82187;BME280;71776;52.042;8.160;2023-08-06T02:47:17;99752.44;;;14.58;86.79
82187;BME280;71776;52.042;8.160;2023-08-06T02:49:44;99751.25;;;14.68;86.67
82187;BME280;71776;52.042;8.160;2023-08-06T02:52:09;99751.34;;;14.65;86.50
82187;BME280;71776;52.042;8.160;2023-08-06T02:54:35;99745.16;;;14.68;86.29
82187;BME280;71776;52.042;8.160;2023-08-06T02:57:00;99742.56;;;14.68;85.94
82187;BME280;71776;52.042;8.160;2023-08-06T02:59:26;99741.69;;;14.67;85.84
82187;BME280;71776;52.042;8.160;2023-08-06T03:01:51;99735.31;;;14.51;86.47
82187;BME280;71776;52.042;8.160;2023-08-06T03:04:18;99734.69;;;14.44;87.06
82187;BME280;71776;52.042;8.160;2023-08-06T03:06:44;99733.88;;;14.44;86.59
82187;BME280;71776;52.042;8.160;2023-08-06T03:09:09;99729.72;;;14.38;86.83
82187;BME280;71776;52.042;8.160;2023-08-06T03:11:35;99724.72;;;14.32;87.30
82187;BME280;71776;52.042;8.160;2023-08-06T03:14:00;99727.41;;;14.29;87.42
82187;BME280;71776;52.042;8.160;2023-08-06T03:16:26;99725.63;;;14.31;87.36
82187;BME280;71776;52.042;8.160;2023-08-06T03:18:51;99723.69;;;14.36;87.41
82187;BME280;71776;52.042;8.160;2023-08-06T03:21:18;99718.09;;;14.47;86.78
82187;BME280;71776;52.042;8.160;2023-08-06T03:23:46;99725.13;;;14.45;86.75
82187;BME280;71776;52.042;8.160;2023-08-06T03:26:12;99724.06;;;14.50;86.82
82187;BME280;71776;52.042;8.160;2023-08-06T03:28:37;99715.97;;;14.58;86.70
82187;BME280;71776;52.042;8.160;2023-08-06T03:31:03;99708.22;;;14.56;86.37
82187;BME280;71776;52.042;8.160;2023-08-06T03:33:29;99719.19;;;14.65;86.08
82187;BME280;71776;52.042;8.160;2023-08-06T03:35:55;99705.44;;;14.61;86.26
82187;BME280;71776;52.042;8.160;2023-08-06T03:38:22;99708.91;;;14.62;86.05
82187;BME280;71776;52.042;8.160;2023-08-06T03:40:48;99707.09;;;14.64;86.13
82187;BME280;71776;52.042;8.160;2023-08-06T03:43:14;99706.97;;;14.67;85.99
82187;BME280;71776;52.042;8.160;2023-08-06T03:45:40;99711.44;;;14.63;86.04
82187;BME280;71776;52.042;8.160;2023-08-06T03:48:06;99708.13;;;14.59;86.05
82187;BME280;71776;52.042;8.160;2023-08-06T03:50:31;99706.16;;;14.65;86.04
82187;BME280;71776;52.042;8.160;2023-08-06T03:52:57;99705.22;;;14.67;85.86
82187;BME280;71776;52.042;8.160;2023-08-06T03:55:24;99702.53;;;14.69;85.84
82187;BME280;71776;52.042;8.160;2023-08-06T03:57:49;99702.53;;;14.69;85.80
82187;BME280;71776;52.042;8.160;2023-08-06T04:00:17;99697.69;;;14.59;85.96
82187;BME280;71776;52.042;8.160;2023-08-06T04:02:42;99699.31;;;14.62;85.70
82187;BME280;71776;52.042;8.160;2023-08-06T04:05:08;99702.53;;;14.69;85.70
82187;BME280;71776;52.042;8.160;2023-08-06T04:07:34;99692.25;;;14.66;85.78
82187;BME280;71776;52.042;8.160;2023-08-06T04:10:01;99701.19;;;14.58;86.14
82187;BME280;71776;52.042;8.160;2023-08-06T04:12:29;99693.56;;;14.77;85.77
82187;BME280;71776;52.042;8.160;2023-08-06T04:14:56;99693.75;;;14.71;85.81
82187;BME280;71776;52.042;8.160;2023-08-06T04:17:22;99692.00;;;14.72;85.52
82187;BME280;71776;52.042;8.160;2023-08-06T04:19:49;99689.31;;;14.75;85.41
82187;BME280;71776;52.042;8.160;2023-08-06T04:22:15;99688.50;;;14.73;85.19
82187;BME280;71776;52.042;8.160;2023-08-06T04:24:43;99678.25;;;14.68;85.27
82187;BME280;71776;52.042;8.160;2023-08-06T04:27:09;99685.72;;;14.77;85.38
82187;BME280;71776;52.042;8.160;2023-08-06T04:29:36;99682.97;;;14.82;85.18
82187;BME280;71776;52.042;8.160;2023-08-06T04:32:03;99683.78;;;14.82;85.05
82187;BME280;71776;52.042;8.160;2023-08-06T04:34:28;99694.63;;;14.95;84.75
82187;BME280;71776;52.042;8.160;2023-08-06T04:36:54;99681.88;;;15.09;83.92
82187;BME280;71776;52.042;8.160;2023-08-06T04:39:19;99691.31;;;15.13;84.06
82187;BME280;71776;52.042;8.160;2023-08-06T04:41:45;99688.47;;;15.19;83.66
82187;BME280;71776;52.042;8.160;2023-08-06T04:44:10;99694.09;;;15.30;84.02
82187;BME280;71776;52.042;8.160;2023-08-06T04:46:37;99696.22;;;15.20;83.52
82187;BME280;71776;52.042;8.160;2023-08-06T04:49:03;99698.09;;;15.17;83.74
82187;BME280;71776;52.042;8.160;2023-08-06T04:51:28;99701.78;;;15.11;83.98
82187;BME280;71776;52.042;8.160;2023-08-06T04:53:54;99692.31;;;15.09;84.16
82187;BME280;71776;52.042;8.160;2023-08-06T04:56:19;99694.72;;;15.15;83.67
82187;BME280;71776;52.042;8.160;2023-08-06T04:58:45;99700.81;;;15.14;83.86
82187;BME280;71776;52.042;8.160;2023-08-06T05:01:11;99701.47;;;15.42;82.98
82187;BME280;71776;52.042;8.160;2023-08-06T05:03:37;99696.97;;;15.67;82.38
82187;BME280;71776;52.042;8.160;2023-08-06T05:06:03;99700.59;;;15.85;80.57
82187;BME280;71776;52.042;8.160;2023-08-06T05:08:29;99699.22;;;15.96;80.26
82187;BME280;71776;52.042;8.160;2023-08-06T05:10:54;99667.09;;;15.94;79.71
82187;BME280;71776;52.042;8.160;2023-08-06T05:13:19;99696.56;;;16.18;79.45
82187;BME280;71776;52.042;8.160;2023-08-06T05:15:45;99700.78;;;16.41;78.54
82187;BME280;71776;52.042;8.160;2023-08-06T05:18:11;99704.38;;;16.97;76.34
82187;BME280;71776;52.042;8.160;2023-08-06T05:20:38;99702.81;;;16.93;76.31
82187;BME280;71776;52.042;8.160;2023-08-06T05:23:03;99704.00;;;16.67;76.91
82187;BME280;71776;52.042;8.160;2023-08-06T05:25:29;99707.06;;;16.37;78.62
82187;BME280;71776;52.042;8.160;2023-08-06T05:27:55;99711.81;;;16.29;78.86
82187;BME280;71776;52.042;8.160;2023-08-06T05:30:20;99708.72;;;15.99;79.99
82187;BME280;71776;52.042;8.160;2023-08-06T05:32:46;99707.34;;;16.11;79.00
82187;BME280;71776;52.042;8.160;2023-08-06T05:35:11;99706.56;;;16.29;79.42
82187;BME280;71776;52.042;8.160;2023-08-06T05:37:38;99707.16;;;16.35;78.15
82187;BME280;71776;52.042;8.160;2023-08-06T05:40:04;99711.25;;;16.41;78.41
82187;BME280;71776;52.042;8.160;2023-08-06T05:42:30;99719.25;;;16.18;78.81
82187;BME280;71776;52.042;8.160;2023-08-06T05:44:56;99710.66;;;16.14;79.15
82187;BME280;71776;52.042;8.160;2023-08-06T05:47:21;99718.19;;;16.01;80.03
82187;BME280;71776;52.042;8.160;2023-08-06T05:49:47;99708.84;;;16.16;79.30
82187;BME280;71776;52.042;8.160;2023-08-06T05:52:12;99714.53;;;16.05;79.68
82187;BME280;71776;52.042;8.160;2023-08-06T05:54:39;99707.81;;;16.20;79.33
82187;BME280;71776;52.042;8.160;2023-08-06T05:57:06;99711.78;;;16.49;77.98
82187;BME280;71776;52.042;8.160;2023-08-06T05:59:31;99710.47;;;16.39;78.56
82187;BME280;71776;52.042;8.160;2023-08-06T06:01:57;99712.13;;;16.61;77.82
82187;BME280;71776;52.042;8.160;2023-08-06T06:04:22;99712.41;;;16.74;77.61
82187;BME280;71776;52.042;8.160;2023-08-06T06:06:48;99710.88;;;16.89;77.79
82187;BME280;71776;52.042;8.160;2023-08-06T06:09:13;99701.69;;;17.17;75.81
82187;BME280;71776;52.042;8.160;2023-08-06T06:11:40;99707.53;;;17.60;74.35
82187;BME280;71776;52.042;8.160;2023-08-06T06:14:06;99705.72;;;17.43;74.56
82187;BME280;71776;52.042;8.160;2023-08-06T06:16:31;99711.94;;;17.22;75.74
82187;BME280;71776;52.042;8.160;2023-08-06T06:18:57;99712.81;;;17.22;75.99
82187;BME280;71776;52.042;8.160;2023-08-06T06:21:23;99712.50;;;17.28;75.56
82187;BME280;71776;52.042;8.160;2023-08-06T06:23:48;99705.13;;;17.36;75.92
82187;BME280;71776;52.042;8.160;2023-08-06T06:26:14;99710.88;;;17.26;75.38
82187;BME280;71776;52.042;8.160;2023-08-06T06:28:41;99709.75;;;17.31;76.54
82187;BME280;71776;52.042;8.160;2023-08-06T06:31:06;99709.47;;;17.19;77.07
82187;BME280;71776;52.042;8.160;2023-08-06T06:33:32;99709.09;;;17.08;77.75
82187;BME280;71776;52.042;8.160;2023-08-06T06:35:57;99712.94;;;17.19;76.99
82187;BME280;71776;52.042;8.160;2023-08-06T06:38:23;99708.19;;;17.27;76.82
82187;BME280;71776;52.042;8.160;2023-08-06T06:40:53;99710.34;;;17.36;76.19
82187;BME280;71776;52.042;8.160;2023-08-06T06:43:19;99705.59;;;17.63;75.45
82187;BME280;71776;52.042;8.160;2023-08-06T06:45:46;99708.50;;;17.93;74.78
82187;BME280;71776;52.042;8.160;2023-08-06T06:48:11;99698.75;;;18.63;72.85
82187;BME280;71776;52.042;8.160;2023-08-06T06:50:37;99694.97;;;18.84;70.13
82187;BME280;71776;52.042;8.160;2023-08-06T06:53:02;99692.47;;;19.14;69.77
82187;BME280;71776;52.042;8.160;2023-08-06T06:55:31;99691.53;;;19.00;69.38
82187;BME280;71776;52.042;8.160;2023-08-06T06:57:57;99696.72;;;19.01;69.42
82187;BME280;71776;52.042;8.160;2023-08-06T07:00:23;99691.47;;;19.01;69.62
82187;BME280;71776;52.042;8.160;2023-08-06T07:02:50;99695.13;;;19.45;68.24
82187;BME280;71776;52.042;8.160;2023-08-06T07:05:15;99696.53;;;19.96;67.28
82187;BME280;71776;52.042;8.160;2023-08-06T07:07:41;99689.50;;;19.97;67.16
82187;BME280;71776;52.042;8.160;2023-08-06T07:10:07;99693.41;;;20.19;66.22
82187;BME280;71776;52.042;8.160;2023-08-06T07:12:33;99689.34;;;20.44;65.09
82187;BME280;71776;52.042;8.160;2023-08-06T07:14:58;99695.56;;;19.83;67.00
82187;BME280;71776;52.042;8.160;2023-08-06T07:17:24;99688.22;;;20.48;65.47
82187;BME280;71776;52.042;8.160;2023-08-06T07:19:52;99692.38;;;20.80;64.24
82187;BME280;71776;52.042;8.160;2023-08-06T07:22:17;99693.47;;;20.90;63.63
82187;BME280;71776;52.042;8.160;2023-08-06T07:24:43;99687.81;;;21.92;61.33
82187;BME280;71776;52.042;8.160;2023-08-06T07:27:08;99674.84;;;23.62;56.38
82187;BME280;71776;52.042;8.160;2023-08-06T07:29:34;99677.50;;;23.62;55.70
82187;BME280;71776;52.042;8.160;2023-08-06T07:31:59;99680.88;;;23.40;55.46
82187;BME280;71776;52.042;8.160;2023-08-06T07:34:25;99677.44;;;23.14;55.53
82187;BME280;71776;52.042;8.160;2023-08-06T07:36:51;99692.13;;;22.05;59.29
82187;BME280;71776;52.042;8.160;2023-08-06T07:39:17;99684.69;;;21.85;60.65
82187;BME280;71776;52.042;8.160;2023-08-06T07:41:42;99686.69;;;21.28;61.46
82187;BME280;71776;52.042;8.160;2023-08-06T07:44:08;99688.75;;;21.76;61.26
82187;BME280;71776;52.042;8.160;2023-08-06T07:46:33;99677.41;;;21.76;60.73
82187;BME280;71776;52.042;8.160;2023-08-06T07:48:59;99687.94;;;21.76;61.33
82187;BME280;71776;52.042;8.160;2023-08-06T07:51:24;99688.47;;;21.81;60.11
82187;BME280;71776;52.042;8.160;2023-08-06T07:53:51;99689.22;;;21.56;61.39
82187;BME280;71776;52.042;8.160;2023-08-06T07:56:17;99691.78;;;21.58;60.96
82187;BME280;71776;52.042;8.160;2023-08-06T07:58:42;99690.34;;;22.06;59.99
82187;BME280;71776;52.042;8.160;2023-08-06T08:01:08;99695.03;;;21.61;61.20
82187;BME280;71776;52.042;8.160;2023-08-06T08:03:33;99691.00;;;21.83;60.97
82187;BME280;71776;52.042;8.160;2023-08-06T08:05:59;99683.81;;;22.24;59.70
82187;BME280;71776;52.042;8.160;2023-08-06T08:08:25;99670.13;;;22.44;57.85
82187;BME280;71776;52.042;8.160;2023-08-06T08:10:51;99682.06;;;22.49;58.20
82187;BME280;71776;52.042;8.160;2023-08-06T08:13:17;99683.09;;;22.72;57.00
82187;BME280;71776;52.042;8.160;2023-08-06T08:15:43;99687.66;;;22.70;56.82
82187;BME280;71776;52.042;8.160;2023-08-06T08:18:08;99677.72;;;22.61;56.47
82187;BME280;71776;52.042;8.160;2023-08-06T08:20:33;99691.78;;;22.87;57.14
82187;BME280;71776;52.042;8.160;2023-08-06T08:22:59;99685.00;;;23.32;55.05
82187;BME280;71776;52.042;8.160;2023-08-06T08:25:25;99678.91;;;23.18;54.63
82187;BME280;71776;52.042;8.160;2023-08-06T08:27:52;99677.88;;;23.68;52.82
82187;BME280;71776;52.042;8.160;2023-08-06T08:30:17;99676.75;;;23.60;51.82
82187;BME280;71776;52.042;8.160;2023-08-06T08:32:43;99678.59;;;23.10;53.09
82187;BME280;71776;52.042;8.160;2023-08-06T08:35:09;99682.56;;;22.55;52.27
82187;BME280;71776;52.042;8.160;2023-08-06T08:37:35;99682.16;;;22.86;52.08
82187;BME280;71776;52.042;8.160;2023-08-06T08:40:01;99675.53;;;23.16;51.97
82187;BME280;71776;52.042;8.160;2023-08-06T08:42:26;99673.03;;;23.02;53.54
82187;BME280;71776;52.042;8.160;2023-08-06T08:44:54;99668.00;;;23.23;52.39
82187;BME280;71776;52.042;8.160;2023-08-06T08:47:20;99677.72;;;22.86;53.72
82187;BME280;71776;52.042;8.160;2023-08-06T08:49:47;99673.06;;;22.52;55.07
82187;BME280;71776;52.042;8.160;2023-08-06T08:52:15;99681.25;;;21.70;56.09
82187;BME280;71776;52.042;8.160;2023-08-06T08:54:41;99685.28;;;21.49;57.32
82187;BME280;71776;52.042;8.160;2023-08-06T08:57:10;99675.41;;;21.26;57.44
82187;BME280;71776;52.042;8.160;2023-08-06T08:59:35;99685.56;;;21.86;56.12
82187;BME280;71776;52.042;8.160;2023-08-06T09:02:02;99687.50;;;22.21;55.45
82187;BME280;71776;52.042;8.160;2023-08-06T09:04:29;99682.03;;;22.37;54.52
82187;BME280;71776;52.042;8.160;2023-08-06T09:06:56;99679.94;;;22.55;52.77
82187;BME280;71776;52.042;8.160;2023-08-06T09:09:26;99682.16;;;22.48;53.07
82187;BME280;71776;52.042;8.160;2023-08-06T09:11:55;99684.06;;;22.71;52.57
82187;BME280;71776;52.042;8.160;2023-08-06T09:14:23;99679.09;;;22.92;52.69
82187;BME280;71776;52.042;8.160;2023-08-06T09:16:49;99672.72;;;23.07;51.48
82187;BME280;71776;52.042;8.160;2023-08-06T09:19:16;99667.66;;;23.40;51.97
82187;BME280;71776;52.042;8.160;2023-08-06T09:21:42;99675.25;;;23.45;51.80
82187;BME280;71776;52.042;8.160;2023-08-06T09:24:09;99669.59;;;23.73;51.49
82187;BME280;71776;52.042;8.160;2023-08-06T09:26:36;99669.97;;;23.45;51.54
82187;BME280;71776;52.042;8.160;2023-08-06T09:29:01;99673.72;;;22.68;52.65
82187;BME280;71776;52.042;8.160;2023-08-06T09:31:32;99671.88;;;23.30;51.26
82187;BME280;71776;52.042;8.160;2023-08-06T09:33:59;99681.09;;;22.50;52.91
82187;BME280;71776;52.042;8.160;2023-08-06T09:36:30;99680.31;;;23.11;52.79
82187;BME280;71776;52.042;8.160;2023-08-06T09:38:55;99678.81;;;23.56;52.15
82187;BME280;71776;52.042;8.160;2023-08-06T09:41:26;99673.59;;;23.55;52.31
82187;BME280;71776;52.042;8.160;2023-08-06T09:43:52;99672.78;;;23.18;53.01
82187;BME280;71776;52.042;8.160;2023-08-06T09:46:17;99675.69;;;23.02;53.75
82187;BME280;71776;52.042;8.160;2023-08-06T09:48:45;99677.81;;;22.34;53.91
82187;BME280;71776;52.042;8.160;2023-08-06T09:51:12;99678.34;;;22.39;54.35
82187;BME280;71776;52.042;8.160;2023-08-06T09:53:40;99674.59;;;23.54;52.58
82187;BME280;71776;52.042;8.160;2023-08-06T09:56:06;99668.63;;;23.98;52.42
82187;BME280;71776;52.042;8.160;2023-08-06T09:58:32;99668.75;;;23.25;52.97
82187;BME280;71776;52.042;8.160;2023-08-06T10:00:58;99671.41;;;22.76;53.11
82187;BME280;71776;52.042;8.160;2023-08-06T10:03:24;99672.00;;;22.04;55.39
82187;BME280;71776;52.042;8.160;2023-08-06T10:05:50;99671.97;;;21.92;56.48
82187;BME280;71776;52.042;8.160;2023-08-06T10:08:16;99668.31;;;22.32;55.94
82187;BME280;71776;52.042;8.160;2023-08-06T10:10:43;99663.16;;;22.43;54.76
82187;BME280;71776;52.042;8.160;2023-08-06T10:13:10;99657.75;;;22.32;54.37
82187;BME280;71776;52.042;8.160;2023-08-06T10:15:37;99664.00;;;22.56;55.36
82187;BME280;71776;52.042;8.160;2023-08-06T10:18:03;99657.88;;;22.68;55.20
82187;BME280;71776;52.042;8.160;2023-08-06T10:20:33;99653.00;;;22.75;56.04
82187;BME280;71776;52.042;8.160;2023-08-06T10:23:03;99656.81;;;22.71;53.89
82187;BME280;71776;52.042;8.160;2023-08-06T10:25:33;99667.56;;;22.55;53.85
82187;BME280;71776;52.042;8.160;2023-08-06T10:28:00;99663.56;;;22.12;54.91
82187;BME280;71776;52.042;8.160;2023-08-06T10:30:27;99667.75;;;21.89;54.35
82187;BME280;71776;52.042;8.160;2023-08-06T10:32:53;99657.22;;;22.02;54.71
82187;BME280;71776;52.042;8.160;2023-08-06T10:35:30;99657.19;;;21.89;55.06
82187;BME280;71776;52.042;8.160;2023-08-06T10:38:03;99656.03;;;21.93;56.36
82187;BME280;71776;52.042;8.160;2023-08-06T10:40:29;99660.16;;;21.97;54.75
82187;BME280;71776;52.042;8.160;2023-08-06T10:42:55;99656.41;;;22.14;53.89
82187;BME280;71776;52.042;8.160;2023-08-06T10:45:22;99662.47;;;21.89;54.65
82187;BME280;71776;52.042;8.160;2023-08-06T10:47:48;99647.31;;;22.18;54.24
82187;BME280;71776;52.042;8.160;2023-08-06T10:50:15;99650.56;;;22.21;53.22
82187;BME280;71776;52.042;8.160;2023-08-06T10:52:40;99654.88;;;21.85;53.72
82187;BME280;71776;52.042;8.160;2023-08-06T10:55:07;99651.84;;;22.41;52.49
82187;BME280;71776;52.042;8.160;2023-08-06T10:57:33;99647.09;;;21.96;54.01
82187;BME280;71776;52.042;8.160;2023-08-06T10:59:58;99645.00;;;22.64;52.20
82187;BME280;71776;52.042;8.160;2023-08-06T11:02:25;99639.41;;;23.04;51.15
82187;BME280;71776;52.042;8.160;2023-08-06T11:04:50;99635.97;;;23.51;50.08
82187;BME280;71776;52.042;8.160;2023-08-06T11:07:16;99640.09;;;23.55;50.83
82187;BME280;71776;52.042;8.160;2023-08-06T11:09:41;99647.56;;;23.38;50.09
82187;BME280;71776;52.042;8.160;2023-08-06T11:12:09;99641.13;;;23.05;50.11
82187;BME280;71776;52.042;8.160;2023-08-06T11:14:35;99637.97;;;23.24;50.91
82187;BME280;71776;52.042;8.160;2023-08-06T11:17:00;99640.88;;;22.34;51.52
82187;BME280;71776;52.042;8.160;2023-08-06T11:19:28;99634.53;;;22.24;52.62
82187;BME280;71776;52.042;8.160;2023-08-06T11:21:54;99630.63;;;22.30;50.95
82187;BME280;71776;52.042;8.160;2023-08-06T11:24:20;99625.97;;;22.46;50.52
82187;BME280;71776;52.042;8.160;2023-08-06T11:26:45;99624.59;;;22.66;52.99
82187;BME280;71776;52.042;8.160;2023-08-06T11:29:11;99625.53;;;22.77;51.54
82187;BME280;71776;52.042;8.160;2023-08-06T11:31:36;99627.16;;;22.67;51.33
82187;BME280;71776;52.042;8.160;2023-08-06T11:34:02;99643.50;;;22.22;52.42
82187;BME280;71776;52.042;8.160;2023-08-06T11:36:30;99635.59;;;22.22;52.54
82187;BME280;71776;52.042;8.160;2023-08-06T11:38:56;99628.41;;;22.49;51.22
82187;BME280;71776;52.042;8.160;2023-08-06T11:41:21;99628.84;;;22.30;51.03
82187;BME280;71776;52.042;8.160;2023-08-06T11:43:47;99626.09;;;22.32;51.02
82187;BME280;71776;52.042;8.160;2023-08-06T11:46:12;99631.19;;;22.60;49.51
82187;BME280;71776;52.042;8.160;2023-08-06T11:48:50;99630.81;;;22.77;49.85
82187;BME280;71776;52.042;8.160;2023-08-06T11:51:16;99619.28;;;22.91;50.00
82187;BME280;71776;52.042;8.160;2023-08-06T11:53:48;99630.94;;;22.76;48.75
82187;BME280;71776;52.042;8.160;2023-08-06T11:56:14;99620.09;;;22.42;50.87
82187;BME280;71776;52.042;8.160;2023-08-06T11:58:40;99613.50;;;22.73;51.77
82187;BME280;71776;52.042;8.160;2023-08-06T12:01:06;99611.53;;;22.64;50.66
82187;BME280;71776;52.042;8.160;2023-08-06T12:03:32;99614.78;;;22.80;50.36
82187;BME280;71776;52.042;8.160;2023-08-06T12:05:57;99615.75;;;22.67;51.91
82187;BME280;71776;52.042;8.160;2023-08-06T12:08:26;99611.19;;;22.56;53.20
82187;BME280;71776;52.042;8.160;2023-08-06T12:10:53;99618.78;;;22.73;52.46
82187;BME280;71776;52.042;8.160;2023-08-06T12:13:19;99613.13;;;22.90;50.96
82187;BME280;71776;52.042;8.160;2023-08-06T12:15:44;99603.59;;;22.64;50.80
82187;BME280;71776;52.042;8.160;2023-08-06T12:18:15;99599.66;;;22.82;50.81
82187;BME280;71776;52.042;8.160;2023-08-06T12:20:41;99602.84;;;22.75;50.28
82187;BME280;71776;52.042;8.160;2023-08-06T12:23:06;99605.38;;;22.51;50.67
82187;BME280;71776;52.042;8.160;2023-08-06T12:25:32;99605.38;;;22.64;50.86
82187;BME280;71776;52.042;8.160;2023-08-06T12:27:59;99596.94;;;23.07;49.33
82187;BME280;71776;52.042;8.160;2023-08-06T12:30:24;99606.28;;;23.48;49.18
82187;BME280;71776;52.042;8.160;2023-08-06T12:32:50;99598.13;;;23.51;49.15
82187;BME280;71776;52.042;8.160;2023-08-06T12:35:16;99595.94;;;23.45;49.99
82187;BME280;71776;52.042;8.160;2023-08-06T12:37:42;99593.72;;;23.15;52.38
82187;BME280;71776;52.042;8.160;2023-08-06T12:40:08;99590.44;;;23.48;51.93
82187;BME280;71776;52.042;8.160;2023-08-06T12:42:34;99593.34;;;23.56;52.03
82187;BME280;71776;52.042;8.160;2023-08-06T12:45:01;99605.75;;;22.95;51.48
82187;BME280;71776;52.042;8.160;2023-08-06T12:47:26;99609.22;;;22.96;50.38
82187;BME280;71776;52.042;8.160;2023-08-06T12:49:52;99620.25;;;22.52;51.99
82187;BME280;71776;52.042;8.160;2023-08-06T12:52:17;99615.41;;;22.71;50.53
82187;BME280;71776;52.042;8.160;2023-08-06T12:54:43;99624.59;;;22.66;50.42